sensor_id;sensor_type;location;lat;lon;timestamp;P1;durP1;ratioP1;P2;durP2;ratioP2
77876;SDS011;67251;50.844;7.978;2023-04-24T00:02:00;1.27;;;0.35;;
77876;SDS011;67251;50.844;7.978;2023-04-24T00:04:26;1.42;;;0.38;;
77876;SDS011;67251;50.844;7.978;2023-04-24T00:06:51;1.55;;;0.40;;
77876;SDS011;67251;50.844;7.978;2023-04-24T00:09:22;1.55;;;0.50;;
77876;SDS011;67251;50.844;7.978;2023-04-24T00:11:48;1.88;;;0.57;;
77876;SDS011;67251;50.844;7.978;2023-04-24T00:14:13;1.77;;;0.50;;
77876;SDS011;67251;50.844;7.978;2023-04-24T00:16:39;1.77;;;0.50;;
77876;SDS011;67251;50.844;7.978;2023-04-24T00:19:04;0.95;;;0.40;;
77876;SDS011;67251;50.844;7.978;2023-04-24T00:21:31;1.40;;;0.50;;
77876;SDS011;67251;50.844;7.978;2023-04-24T00:23:57;2.92;;;0.63;;
77876;SDS011;67251;50.844;7.978;2023-04-24T00:26:23;1.90;;;0.52;;
77876;SDS011;67251;50.844;7.978;2023-04-24T00:28:48;1.35;;;0.40;;
77876;SDS011;67251;50.844;7.978;2023-04-24T00:31:13;1.52;;;0.47;;
77876;SDS011;67251;50.844;7.978;2023-04-24T00:33:39;2.17;;;0.50;;
77876;SDS011;67251;50.844;7.978;2023-04-24T00:36:04;3.35;;;0.70;;
77876;SDS011;67251;50.844;7.978;2023-04-24T00:38:30;1.55;;;0.47;;
77876;SDS011;67251;50.844;7.978;2023-04-24T00:40:56;2.28;;;0.50;;
77876;SDS011;67251;50.844;7.978;2023-04-24T00:43:21;0.85;;;0.40;;
77876;SDS011;67251;50.844;7.978;2023-04-24T00:45:47;2.00;;;0.47;;
77876;SDS011;67251;50.844;7.978;2023-04-24T00:48:12;1.35;;;0.30;;
77876;SDS011;67251;50.844;7.978;2023-04-24T00:50:38;1.55;;;0.40;;
77876;SDS011;67251;50.844;7.978;2023-04-24T00:53:04;1.63;;;0.40;;
77876;SDS011;67251;50.844;7.978;2023-04-24T00:55:29;0.85;;;0.30;;
77876;SDS011;67251;50.844;7.978;2023-04-24T00:57:56;1.95;;;0.50;;
77876;SDS011;67251;50.844;7.978;2023-04-24T01:00:22;0.82;;;0.40;;
77876;SDS011;67251;50.844;7.978;2023-04-24T01:02:47;1.85;;;0.50;;
77876;SDS011;67251;50.844;7.978;2023-04-24T01:05:15;1.90;;;0.60;;
77876;SDS011;67251;50.844;7.978;2023-04-24T01:07:43;1.15;;;0.55;;
77876;SDS011;67251;50.844;7.978;2023-04-24T01:10:10;1.38;;;0.50;;
77876;SDS011;67251;50.844;7.978;2023-04-24T01:12:36;3.00;;;0.80;;
77876;SDS011;67251;50.844;7.978;2023-04-24T01:15:02;2.42;;;1.05;;
77876;SDS011;67251;50.844;7.978;2023-04-24T01:17:28;0.70;;;0.45;;
77876;SDS011;67251;50.844;7.978;2023-04-24T01:19:54;2.05;;;0.43;;
77876;SDS011;67251;50.844;7.978;2023-04-24T01:22:21;1.20;;;0.50;;
77876;SDS011;67251;50.844;7.978;2023-04-24T01:24:47;1.83;;;0.60;;
77876;SDS011;67251;50.844;7.978;2023-04-24T01:27:12;2.67;;;0.47;;
77876;SDS011;67251;50.844;7.978;2023-04-24T01:29:38;1.77;;;0.60;;
77876;SDS011;67251;50.844;7.978;2023-04-24T01:32:04;1.55;;;0.45;;
77876;SDS011;67251;50.844;7.978;2023-04-24T01:34:30;1.05;;;0.43;;
77876;SDS011;67251;50.844;7.978;2023-04-24T01:36:55;2.33;;;0.30;;
77876;SDS011;67251;50.844;7.978;2023-04-24T01:39:21;1.08;;;0.50;;
77876;SDS011;67251;50.844;7.978;2023-04-24T01:41:48;1.67;;;0.40;;
77876;SDS011;67251;50.844;7.978;2023-04-24T01:44:15;1.73;;;0.30;;
77876;SDS011;67251;50.844;7.978;2023-04-24T01:46:40;1.27;;;0.50;;
77876;SDS011;67251;50.844;7.978;2023-04-24T01:54:25;1.13;;;0.40;;
77876;SDS011;67251;50.844;7.978;2023-04-24T01:56:51;0.90;;;0.43;;
77876;SDS011;67251;50.844;7.978;2023-04-24T01:59:17;0.70;;;0.40;;
77876;SDS011;67251;50.844;7.978;2023-04-24T02:01:43;1.95;;;0.50;;
77876;SDS011;67251;50.844;7.978;2023-04-24T02:04:08;3.28;;;0.70;;
77876;SDS011;67251;50.844;7.978;2023-04-24T02:06:34;1.15;;;0.43;;
77876;SDS011;67251;50.844;7.978;2023-04-24T02:09:00;1.45;;;0.50;;
77876;SDS011;67251;50.844;7.978;2023-04-24T02:11:26;1.85;;;0.50;;
77876;SDS011;67251;50.844;7.978;2023-04-24T02:13:52;2.83;;;0.60;;
77876;SDS011;67251;50.844;7.978;2023-04-24T02:16:18;1.25;;;0.50;;
77876;SDS011;67251;50.844;7.978;2023-04-24T02:18:43;1.45;;;0.50;;
77876;SDS011;67251;50.844;7.978;2023-04-24T02:21:10;1.65;;;0.65;;
77876;SDS011;67251;50.844;7.978;2023-04-24T02:23:35;1.85;;;0.52;;
77876;SDS011;67251;50.844;7.978;2023-04-24T02:26:00;2.03;;;0.55;;
77876;SDS011;67251;50.844;7.978;2023-04-24T02:28:26;1.75;;;0.60;;
77876;SDS011;67251;50.844;7.978;2023-04-24T02:30:51;2.70;;;0.55;;
77876;SDS011;67251;50.844;7.978;2023-04-24T02:33:17;2.67;;;0.70;;
77876;SDS011;67251;50.844;7.978;2023-04-24T02:35:42;2.15;;;0.70;;
77876;SDS011;67251;50.844;7.978;2023-04-24T02:38:08;1.73;;;0.60;;
77876;SDS011;67251;50.844;7.978;2023-04-24T02:40:33;1.13;;;0.50;;
77876;SDS011;67251;50.844;7.978;2023-04-24T02:42:58;1.65;;;0.70;;
77876;SDS011;67251;50.844;7.978;2023-04-24T02:45:24;2.30;;;0.80;;
77876;SDS011;67251;50.844;7.978;2023-04-24T02:47:49;1.55;;;0.50;;
77876;SDS011;67251;50.844;7.978;2023-04-24T02:50:14;1.52;;;0.52;;
77876;SDS011;67251;50.844;7.978;2023-04-24T02:52:40;1.75;;;0.60;;
77876;SDS011;67251;50.844;7.978;2023-04-24T02:55:05;1.92;;;0.70;;
77876;SDS011;67251;50.844;7.978;2023-04-24T02:57:32;2.05;;;0.70;;
77876;SDS011;67251;50.844;7.978;2023-04-24T02:59:58;2.28;;;0.70;;
77876;SDS011;67251;50.844;7.978;2023-04-24T03:02:23;2.47;;;0.70;;
77876;SDS011;67251;50.844;7.978;2023-04-24T03:04:49;2.25;;;0.57;;
77876;SDS011;67251;50.844;7.978;2023-04-24T03:07:14;2.42;;;0.90;;
77876;SDS011;67251;50.844;7.978;2023-04-24T03:09:40;3.15;;;0.90;;
77876;SDS011;67251;50.844;7.978;2023-04-24T03:12:05;3.25;;;0.75;;
77876;SDS011;67251;50.844;7.978;2023-04-24T03:14:31;2.15;;;0.70;;
77876;SDS011;67251;50.844;7.978;2023-04-24T03:16:56;3.30;;;1.00;;
77876;SDS011;67251;50.844;7.978;2023-04-24T03:19:22;3.58;;;1.10;;
77876;SDS011;67251;50.844;7.978;2023-04-24T03:21:47;3.35;;;1.00;;
77876;SDS011;67251;50.844;7.978;2023-04-24T03:24:13;2.70;;;1.08;;
77876;SDS011;67251;50.844;7.978;2023-04-24T03:26:39;3.45;;;1.17;;
77876;SDS011;67251;50.844;7.978;2023-04-24T03:29:04;5.20;;;1.30;;
77876;SDS011;67251;50.844;7.978;2023-04-24T03:31:30;3.83;;;1.35;;
77876;SDS011;67251;50.844;7.978;2023-04-24T03:33:55;3.80;;;1.58;;
77876;SDS011;67251;50.844;7.978;2023-04-24T03:36:20;3.05;;;1.23;;
77876;SDS011;67251;50.844;7.978;2023-04-24T03:38:46;3.78;;;1.30;;
77876;SDS011;67251;50.844;7.978;2023-04-24T03:41:11;4.00;;;1.50;;
77876;SDS011;67251;50.844;7.978;2023-04-24T03:43:37;4.78;;;1.60;;
77876;SDS011;67251;50.844;7.978;2023-04-24T03:46:03;3.38;;;1.30;;
77876;SDS011;67251;50.844;7.978;2023-04-24T03:48:28;3.85;;;1.48;;
77876;SDS011;67251;50.844;7.978;2023-04-24T03:50:54;3.55;;;1.50;;
77876;SDS011;67251;50.844;7.978;2023-04-24T03:53:20;3.45;;;1.35;;
77876;SDS011;67251;50.844;7.978;2023-04-24T03:55:45;4.18;;;1.48;;
77876;SDS011;67251;50.844;7.978;2023-04-24T03:58:11;4.40;;;1.70;;
77876;SDS011;67251;50.844;7.978;2023-04-24T04:00:36;4.18;;;1.40;;
77876;SDS011;67251;50.844;7.978;2023-04-24T04:03:02;4.03;;;1.65;;
77876;SDS011;67251;50.844;7.978;2023-04-24T04:05:28;6.43;;;1.80;;
77876;SDS011;67251;50.844;7.978;2023-04-24T04:07:54;6.50;;;2.25;;
77876;SDS011;67251;50.844;7.978;2023-04-24T04:10:19;5.30;;;1.73;;
77876;SDS011;67251;50.844;7.978;2023-04-24T04:12:45;4.32;;;1.85;;
77876;SDS011;67251;50.844;7.978;2023-04-24T04:15:10;4.72;;;1.80;;
77876;SDS011;67251;50.844;7.978;2023-04-24T04:17:36;5.03;;;1.88;;
77876;SDS011;67251;50.844;7.978;2023-04-24T04:20:03;6.13;;;2.60;;
77876;SDS011;67251;50.844;7.978;2023-04-24T04:22:32;4.00;;;1.77;;
77876;SDS011;67251;50.844;7.978;2023-04-24T04:24:57;5.07;;;2.20;;
77876;SDS011;67251;50.844;7.978;2023-04-24T04:27:22;5.05;;;1.80;;
77876;SDS011;67251;50.844;7.978;2023-04-24T04:29:48;5.00;;;2.30;;
77876;SDS011;67251;50.844;7.978;2023-04-24T04:32:15;5.38;;;2.45;;
77876;SDS011;67251;50.844;7.978;2023-04-24T04:34:40;5.30;;;2.10;;
77876;SDS011;67251;50.844;7.978;2023-04-24T04:37:06;5.05;;;1.42;;
77876;SDS011;67251;50.844;7.978;2023-04-24T04:39:32;5.35;;;2.20;;
77876;SDS011;67251;50.844;7.978;2023-04-24T04:41:57;5.30;;;2.15;;
77876;SDS011;67251;50.844;7.978;2023-04-24T04:44:23;6.65;;;2.60;;
77876;SDS011;67251;50.844;7.978;2023-04-24T04:46:49;5.97;;;2.10;;
77876;SDS011;67251;50.844;7.978;2023-04-24T04:49:15;5.43;;;1.92;;
77876;SDS011;67251;50.844;7.978;2023-04-24T04:51:41;3.33;;;1.40;;
77876;SDS011;67251;50.844;7.978;2023-04-24T04:54:07;3.60;;;1.50;;
77876;SDS011;67251;50.844;7.978;2023-04-24T04:56:32;4.75;;;1.98;;
77876;SDS011;67251;50.844;7.978;2023-04-24T04:58:58;4.45;;;1.88;;
77876;SDS011;67251;50.844;7.978;2023-04-24T05:01:24;4.00;;;1.60;;
77876;SDS011;67251;50.844;7.978;2023-04-24T05:03:50;4.82;;;1.85;;
77876;SDS011;67251;50.844;7.978;2023-04-24T05:06:15;5.65;;;2.10;;
77876;SDS011;67251;50.844;7.978;2023-04-24T05:08:42;5.53;;;2.20;;
77876;SDS011;67251;50.844;7.978;2023-04-24T05:11:07;4.35;;;1.95;;
77876;SDS011;67251;50.844;7.978;2023-04-24T05:13:33;7.20;;;2.47;;
77876;SDS011;67251;50.844;7.978;2023-04-24T05:15:58;6.32;;;2.50;;
77876;SDS011;67251;50.844;7.978;2023-04-24T05:18:24;6.65;;;2.83;;
77876;SDS011;67251;50.844;7.978;2023-04-24T05:20:49;5.38;;;2.25;;
77876;SDS011;67251;50.844;7.978;2023-04-24T05:23:14;5.18;;;2.22;;
77876;SDS011;67251;50.844;7.978;2023-04-24T05:25:40;5.53;;;2.35;;
77876;SDS011;67251;50.844;7.978;2023-04-24T05:28:06;6.15;;;2.35;;
77876;SDS011;67251;50.844;7.978;2023-04-24T05:30:32;5.07;;;2.20;;
77876;SDS011;67251;50.844;7.978;2023-04-24T05:32:57;5.55;;;2.20;;
77876;SDS011;67251;50.844;7.978;2023-04-24T05:35:23;6.72;;;2.10;;
77876;SDS011;67251;50.844;7.978;2023-04-24T05:37:48;6.10;;;2.22;;
77876;SDS011;67251;50.844;7.978;2023-04-24T05:40:13;5.53;;;2.20;;
77876;SDS011;67251;50.844;7.978;2023-04-24T05:42:39;5.22;;;2.53;;
77876;SDS011;67251;50.844;7.978;2023-04-24T05:45:04;4.75;;;2.13;;
77876;SDS011;67251;50.844;7.978;2023-04-24T05:47:30;6.35;;;2.53;;
77876;SDS011;67251;50.844;7.978;2023-04-24T05:49:56;4.82;;;2.10;;
77876;SDS011;67251;50.844;7.978;2023-04-24T05:52:21;6.70;;;2.35;;
77876;SDS011;67251;50.844;7.978;2023-04-24T05:54:46;6.70;;;2.08;;
77876;SDS011;67251;50.844;7.978;2023-04-24T05:57:12;3.72;;;1.73;;
77876;SDS011;67251;50.844;7.978;2023-04-24T05:59:38;6.32;;;2.25;;
77876;SDS011;67251;50.844;7.978;2023-04-24T06:02:03;6.00;;;2.03;;
77876;SDS011;67251;50.844;7.978;2023-04-24T06:04:29;5.40;;;2.10;;
77876;SDS011;67251;50.844;7.978;2023-04-24T06:06:54;5.78;;;2.50;;
77876;SDS011;67251;50.844;7.978;2023-04-24T06:09:24;5.90;;;2.00;;
77876;SDS011;67251;50.844;7.978;2023-04-24T06:11:50;5.05;;;1.88;;
77876;SDS011;67251;50.844;7.978;2023-04-24T06:14:18;6.68;;;2.13;;
77876;SDS011;67251;50.844;7.978;2023-04-24T06:16:43;5.25;;;2.17;;
77876;SDS011;67251;50.844;7.978;2023-04-24T06:19:08;6.82;;;2.40;;
77876;SDS011;67251;50.844;7.978;2023-04-24T06:21:34;5.32;;;2.17;;
77876;SDS011;67251;50.844;7.978;2023-04-24T06:23:59;4.75;;;2.30;;
77876;SDS011;67251;50.844;7.978;2023-04-24T06:26:25;5.25;;;2.47;;
77876;SDS011;67251;50.844;7.978;2023-04-24T06:28:51;5.72;;;2.25;;
77876;SDS011;67251;50.844;7.978;2023-04-24T06:31:18;4.70;;;2.13;;
77876;SDS011;67251;50.844;7.978;2023-04-24T06:33:44;6.13;;;2.47;;
77876;SDS011;67251;50.844;7.978;2023-04-24T06:36:10;4.30;;;1.98;;
77876;SDS011;67251;50.844;7.978;2023-04-24T06:38:35;7.63;;;2.60;;
77876;SDS011;67251;50.844;7.978;2023-04-24T06:41:01;5.68;;;2.70;;
77876;SDS011;67251;50.844;7.978;2023-04-24T06:43:26;5.13;;;1.98;;
77876;SDS011;67251;50.844;7.978;2023-04-24T06:45:52;5.35;;;2.15;;
77876;SDS011;67251;50.844;7.978;2023-04-24T06:48:17;5.47;;;2.28;;
77876;SDS011;67251;50.844;7.978;2023-04-24T06:50:42;6.93;;;2.63;;
77876;SDS011;67251;50.844;7.978;2023-04-24T06:53:08;6.78;;;2.58;;
77876;SDS011;67251;50.844;7.978;2023-04-24T06:55:36;6.05;;;2.42;;
77876;SDS011;67251;50.844;7.978;2023-04-24T06:58:01;4.95;;;2.38;;
77876;SDS011;67251;50.844;7.978;2023-04-24T07:00:26;6.00;;;2.90;;
77876;SDS011;67251;50.844;7.978;2023-04-24T07:02:52;6.05;;;2.60;;
77876;SDS011;67251;50.844;7.978;2023-04-24T07:05:17;6.97;;;2.53;;
77876;SDS011;67251;50.844;7.978;2023-04-24T07:07:45;7.00;;;2.95;;
77876;SDS011;67251;50.844;7.978;2023-04-24T07:10:12;5.72;;;2.70;;
77876;SDS011;67251;50.844;7.978;2023-04-24T07:12:38;4.90;;;2.47;;
77876;SDS011;67251;50.844;7.978;2023-04-24T07:15:04;5.65;;;2.63;;
77876;SDS011;67251;50.844;7.978;2023-04-24T07:17:30;8.25;;;2.63;;
77876;SDS011;67251;50.844;7.978;2023-04-24T07:19:56;7.57;;;2.85;;
77876;SDS011;67251;50.844;7.978;2023-04-24T07:22:21;6.85;;;3.05;;
77876;SDS011;67251;50.844;7.978;2023-04-24T07:24:47;7.78;;;2.70;;
77876;SDS011;67251;50.844;7.978;2023-04-24T07:27:12;6.50;;;3.08;;
77876;SDS011;67251;50.844;7.978;2023-04-24T07:29:39;5.68;;;2.60;;
77876;SDS011;67251;50.844;7.978;2023-04-24T07:32:05;11.13;;;3.20;;
77876;SDS011;67251;50.844;7.978;2023-04-24T07:34:31;6.18;;;2.63;;
77876;SDS011;67251;50.844;7.978;2023-04-24T07:36:56;4.38;;;1.98;;
77876;SDS011;67251;50.844;7.978;2023-04-24T07:39:22;5.47;;;2.70;;
77876;SDS011;67251;50.844;7.978;2023-04-24T07:41:48;6.63;;;2.53;;
77876;SDS011;67251;50.844;7.978;2023-04-24T07:44:13;6.07;;;2.33;;
77876;SDS011;67251;50.844;7.978;2023-04-24T07:46:39;6.13;;;2.70;;
77876;SDS011;67251;50.844;7.978;2023-04-24T07:49:05;6.60;;;2.60;;
77876;SDS011;67251;50.844;7.978;2023-04-24T07:51:30;6.50;;;2.80;;
77876;SDS011;67251;50.844;7.978;2023-04-24T07:53:57;5.30;;;2.63;;
77876;SDS011;67251;50.844;7.978;2023-04-24T07:56:22;6.00;;;2.42;;
77876;SDS011;67251;50.844;7.978;2023-04-24T07:58:48;6.63;;;2.80;;
77876;SDS011;67251;50.844;7.978;2023-04-24T08:01:13;7.10;;;2.25;;
77876;SDS011;67251;50.844;7.978;2023-04-24T08:03:39;6.43;;;2.60;;
77876;SDS011;67251;50.844;7.978;2023-04-24T08:06:04;5.30;;;2.28;;
77876;SDS011;67251;50.844;7.978;2023-04-24T08:08:30;6.78;;;2.60;;
77876;SDS011;67251;50.844;7.978;2023-04-24T08:10:55;5.82;;;2.42;;
77876;SDS011;67251;50.844;7.978;2023-04-24T08:13:21;6.93;;;2.63;;
77876;SDS011;67251;50.844;7.978;2023-04-24T08:15:46;7.43;;;3.25;;
77876;SDS011;67251;50.844;7.978;2023-04-24T08:18:11;4.90;;;1.95;;
77876;SDS011;67251;50.844;7.978;2023-04-24T08:20:38;5.95;;;2.35;;
77876;SDS011;67251;50.844;7.978;2023-04-24T08:23:04;5.55;;;2.40;;
77876;SDS011;67251;50.844;7.978;2023-04-24T08:25:30;5.40;;;2.42;;
77876;SDS011;67251;50.844;7.978;2023-04-24T08:27:55;6.78;;;3.05;;
77876;SDS011;67251;50.844;7.978;2023-04-24T08:30:20;7.68;;;2.90;;
77876;SDS011;67251;50.844;7.978;2023-04-24T08:32:46;6.32;;;2.75;;
77876;SDS011;67251;50.844;7.978;2023-04-24T08:35:12;6.35;;;2.97;;
77876;SDS011;67251;50.844;7.978;2023-04-24T08:37:38;5.75;;;2.83;;
77876;SDS011;67251;50.844;7.978;2023-04-24T08:40:05;5.38;;;2.72;;
77876;SDS011;67251;50.844;7.978;2023-04-24T08:42:36;8.13;;;3.03;;
77876;SDS011;67251;50.844;7.978;2023-04-24T08:45:03;5.20;;;2.53;;
77876;SDS011;67251;50.844;7.978;2023-04-24T08:47:28;7.07;;;2.67;;
77876;SDS011;67251;50.844;7.978;2023-04-24T08:49:55;9.68;;;3.03;;
77876;SDS011;67251;50.844;7.978;2023-04-24T08:52:21;9.02;;;3.30;;
77876;SDS011;67251;50.844;7.978;2023-04-24T08:54:46;5.32;;;2.70;;
77876;SDS011;67251;50.844;7.978;2023-04-24T08:57:12;5.75;;;2.50;;
77876;SDS011;67251;50.844;7.978;2023-04-24T08:59:39;5.00;;;1.55;;
77876;SDS011;67251;50.844;7.978;2023-04-24T09:02:05;5.38;;;1.90;;
77876;SDS011;67251;50.844;7.978;2023-04-24T09:04:35;2.95;;;1.30;;
77876;SDS011;67251;50.844;7.978;2023-04-24T09:07:01;5.00;;;1.83;;
77876;SDS011;67251;50.844;7.978;2023-04-24T09:09:28;3.38;;;1.33;;
77876;SDS011;67251;50.844;7.978;2023-04-24T09:11:56;3.20;;;1.10;;
77876;SDS011;67251;50.844;7.978;2023-04-24T09:14:22;4.68;;;1.38;;
77876;SDS011;67251;50.844;7.978;2023-04-24T09:16:48;3.33;;;0.90;;
77876;SDS011;67251;50.844;7.978;2023-04-24T09:19:14;3.03;;;1.00;;
77876;SDS011;67251;50.844;7.978;2023-04-24T09:21:40;1.55;;;0.50;;
77876;SDS011;67251;50.844;7.978;2023-04-24T09:24:14;1.58;;;0.60;;
77876;SDS011;67251;50.844;7.978;2023-04-24T09:26:45;2.28;;;0.75;;
77876;SDS011;67251;50.844;7.978;2023-04-24T09:29:17;2.53;;;0.90;;
77876;SDS011;67251;50.844;7.978;2023-04-24T09:31:43;1.65;;;0.55;;
77876;SDS011;67251;50.844;7.978;2023-04-24T09:34:10;1.75;;;0.68;;
77876;SDS011;67251;50.844;7.978;2023-04-24T09:36:40;2.88;;;0.70;;
77876;SDS011;67251;50.844;7.978;2023-04-24T09:39:09;1.83;;;0.60;;
77876;SDS011;67251;50.844;7.978;2023-04-24T09:41:57;1.30;;;0.47;;
77876;SDS011;67251;50.844;7.978;2023-04-24T09:44:23;1.73;;;0.50;;
77876;SDS011;67251;50.844;7.978;2023-04-24T09:46:51;1.55;;;0.40;;
77876;SDS011;67251;50.844;7.978;2023-04-24T09:51:52;1.13;;;0.30;;
77876;SDS011;67251;50.844;7.978;2023-04-24T09:54:28;0.82;;;0.30;;
77876;SDS011;67251;50.844;7.978;2023-04-24T09:56:54;1.02;;;0.30;;
77876;SDS011;67251;50.844;7.978;2023-04-24T09:59:20;0.65;;;0.28;;
77876;SDS011;67251;50.844;7.978;2023-04-24T10:01:45;0.52;;;0.17;;
77876;SDS011;67251;50.844;7.978;2023-04-24T10:04:17;0.68;;;0.30;;
77876;SDS011;67251;50.844;7.978;2023-04-24T10:06:45;1.08;;;0.35;;
77876;SDS011;67251;50.844;7.978;2023-04-24T10:09:11;2.22;;;0.50;;
77876;SDS011;67251;50.844;7.978;2023-04-24T10:11:40;1.42;;;0.50;;
77876;SDS011;67251;50.844;7.978;2023-04-24T10:14:08;0.90;;;0.30;;
77876;SDS011;67251;50.844;7.978;2023-04-24T10:16:35;0.30;;;0.20;;
77876;SDS011;67251;50.844;7.978;2023-04-24T10:19:02;0.90;;;0.40;;
77876;SDS011;67251;50.844;7.978;2023-04-24T10:21:28;1.85;;;0.60;;
77876;SDS011;67251;50.844;7.978;2023-04-24T10:23:54;2.60;;;0.60;;
77876;SDS011;67251;50.844;7.978;2023-04-24T10:26:20;2.08;;;0.63;;
77876;SDS011;67251;50.844;7.978;2023-04-24T10:28:47;2.03;;;0.63;;
77876;SDS011;67251;50.844;7.978;2023-04-24T10:31:13;1.35;;;0.40;;
77876;SDS011;67251;50.844;7.978;2023-04-24T10:33:43;2.45;;;0.80;;
77876;SDS011;67251;50.844;7.978;2023-04-24T10:36:09;2.05;;;0.55;;
77876;SDS011;67251;50.844;7.978;2023-04-24T10:38:36;1.67;;;0.60;;
77876;SDS011;67251;50.844;7.978;2023-04-24T10:43:34;2.50;;;0.80;;
77876;SDS011;67251;50.844;7.978;2023-04-24T10:46:00;2.13;;;0.73;;
77876;SDS011;67251;50.844;7.978;2023-04-24T10:48:28;2.85;;;0.90;;
77876;SDS011;67251;50.844;7.978;2023-04-24T10:50:53;2.45;;;0.80;;
77876;SDS011;67251;50.844;7.978;2023-04-24T10:53:19;2.60;;;0.90;;
77876;SDS011;67251;50.844;7.978;2023-04-24T10:55:49;1.75;;;0.73;;
77876;SDS011;67251;50.844;7.978;2023-04-24T10:58:23;2.30;;;0.70;;
77876;SDS011;67251;50.844;7.978;2023-04-24T11:00:56;3.20;;;0.90;;
77876;SDS011;67251;50.844;7.978;2023-04-24T11:03:26;2.88;;;0.93;;
77876;SDS011;67251;50.844;7.978;2023-04-24T11:06:01;3.63;;;1.08;;
77876;SDS011;67251;50.844;7.978;2023-04-24T11:10:59;2.42;;;0.98;;
77876;SDS011;67251;50.844;7.978;2023-04-24T11:13:25;3.05;;;1.30;;
77876;SDS011;67251;50.844;7.978;2023-04-24T11:19:24;3.15;;;1.02;;
77876;SDS011;67251;50.844;7.978;2023-04-24T11:21:58;3.55;;;1.35;;
77876;SDS011;67251;50.844;7.978;2023-04-24T11:24:29;3.33;;;1.42;;
77876;SDS011;67251;50.844;7.978;2023-04-24T11:32:47;4.57;;;1.70;;
77876;SDS011;67251;50.844;7.978;2023-04-24T11:37:37;5.53;;;2.00;;
77876;SDS011;67251;50.844;7.978;2023-04-24T11:40:05;5.38;;;2.20;;
77876;SDS011;67251;50.844;7.978;2023-04-24T11:42:35;4.85;;;1.88;;
77876;SDS011;67251;50.844;7.978;2023-04-24T11:45:09;5.80;;;1.73;;
77876;SDS011;67251;50.844;7.978;2023-04-24T11:47:38;4.50;;;1.80;;
77876;SDS011;67251;50.844;7.978;2023-04-24T11:50:05;5.28;;;1.67;;
77876;SDS011;67251;50.844;7.978;2023-04-24T11:52:33;7.43;;;2.00;;
77876;SDS011;67251;50.844;7.978;2023-04-24T11:55:03;6.43;;;2.20;;
77876;SDS011;67251;50.844;7.978;2023-04-24T11:57:28;5.95;;;2.22;;
77876;SDS011;67251;50.844;7.978;2023-04-24T11:59:59;5.70;;;2.03;;
77876;SDS011;67251;50.844;7.978;2023-04-24T12:02:26;6.40;;;2.17;;
77876;SDS011;67251;50.844;7.978;2023-04-24T12:04:55;6.10;;;2.67;;
77876;SDS011;67251;50.844;7.978;2023-04-24T12:07:21;5.80;;;1.92;;
77876;SDS011;67251;50.844;7.978;2023-04-24T12:09:49;4.95;;;2.05;;
77876;SDS011;67251;50.844;7.978;2023-04-24T12:12:20;4.43;;;1.92;;
77876;SDS011;67251;50.844;7.978;2023-04-24T12:14:56;8.35;;;2.00;;
77876;SDS011;67251;50.844;7.978;2023-04-24T12:17:29;4.47;;;1.42;;
77876;SDS011;67251;50.844;7.978;2023-04-24T12:20:06;7.72;;;2.40;;
77876;SDS011;67251;50.844;7.978;2023-04-24T12:25:29;4.43;;;1.67;;
77876;SDS011;67251;50.844;7.978;2023-04-24T12:28:14;3.63;;;1.10;;
77876;SDS011;67251;50.844;7.978;2023-04-24T12:30:48;5.63;;;1.77;;
77876;SDS011;67251;50.844;7.978;2023-04-24T12:33:21;4.40;;;1.25;;
77876;SDS011;67251;50.844;7.978;2023-04-24T12:35:47;2.88;;;1.00;;
77876;SDS011;67251;50.844;7.978;2023-04-24T12:38:16;4.05;;;1.30;;
77876;SDS011;67251;50.844;7.978;2023-04-24T12:40:43;2.60;;;1.05;;
77876;SDS011;67251;50.844;7.978;2023-04-24T12:43:18;4.97;;;1.77;;
77876;SDS011;67251;50.844;7.978;2023-04-24T12:45:44;3.15;;;0.90;;
77876;SDS011;67251;50.844;7.978;2023-04-24T12:48:10;3.55;;;1.23;;
77876;SDS011;67251;50.844;7.978;2023-04-24T12:50:36;5.18;;;1.70;;
77876;SDS011;67251;50.844;7.978;2023-04-24T12:53:03;4.13;;;1.60;;
77876;SDS011;67251;50.844;7.978;2023-04-24T12:55:28;3.47;;;1.20;;
77876;SDS011;67251;50.844;7.978;2023-04-24T12:57:54;5.75;;;2.00;;
77876;SDS011;67251;50.844;7.978;2023-04-24T13:00:20;5.57;;;1.33;;
77876;SDS011;67251;50.844;7.978;2023-04-24T13:02:45;5.65;;;2.05;;
77876;SDS011;67251;50.844;7.978;2023-04-24T13:05:11;7.18;;;2.38;;
77876;SDS011;67251;50.844;7.978;2023-04-24T13:07:39;4.30;;;1.70;;
77876;SDS011;67251;50.844;7.978;2023-04-24T13:10:05;5.65;;;1.73;;
77876;SDS011;67251;50.844;7.978;2023-04-24T13:12:31;5.72;;;2.15;;
77876;SDS011;67251;50.844;7.978;2023-04-24T13:14:57;6.57;;;2.05;;
77876;SDS011;67251;50.844;7.978;2023-04-24T13:17:23;4.28;;;1.55;;
77876;SDS011;67251;50.844;7.978;2023-04-24T13:19:50;7.75;;;1.80;;
77876;SDS011;67251;50.844;7.978;2023-04-24T13:22:16;6.38;;;2.00;;
77876;SDS011;67251;50.844;7.978;2023-04-24T13:24:43;5.18;;;1.92;;
77876;SDS011;67251;50.844;7.978;2023-04-24T13:27:09;7.38;;;2.20;;
77876;SDS011;67251;50.844;7.978;2023-04-24T13:29:35;5.97;;;2.30;;
77876;SDS011;67251;50.844;7.978;2023-04-24T13:32:01;5.55;;;1.83;;
77876;SDS011;67251;50.844;7.978;2023-04-24T13:34:27;6.55;;;2.08;;
77876;SDS011;67251;50.844;7.978;2023-04-24T13:36:53;4.00;;;1.70;;
77876;SDS011;67251;50.844;7.978;2023-04-24T13:39:19;5.07;;;2.20;;
77876;SDS011;67251;50.844;7.978;2023-04-24T13:41:45;5.88;;;2.22;;
77876;SDS011;67251;50.844;7.978;2023-04-24T13:44:13;9.25;;;3.08;;
77876;SDS011;67251;50.844;7.978;2023-04-24T13:46:39;5.85;;;2.25;;
77876;SDS011;67251;50.844;7.978;2023-04-24T13:49:04;6.22;;;2.00;;
77876;SDS011;67251;50.844;7.978;2023-04-24T13:51:30;6.28;;;2.78;;
77876;SDS011;67251;50.844;7.978;2023-04-24T13:53:55;5.65;;;2.10;;
77876;SDS011;67251;50.844;7.978;2023-04-24T13:56:21;4.90;;;2.00;;
77876;SDS011;67251;50.844;7.978;2023-04-24T13:58:47;5.68;;;1.95;;
77876;SDS011;67251;50.844;7.978;2023-04-24T14:01:13;8.23;;;2.22;;
77876;SDS011;67251;50.844;7.978;2023-04-24T14:03:41;5.18;;;1.98;;
77876;SDS011;67251;50.844;7.978;2023-04-24T14:06:08;5.82;;;2.10;;
77876;SDS011;67251;50.844;7.978;2023-04-24T14:08:33;4.93;;;1.90;;
77876;SDS011;67251;50.844;7.978;2023-04-24T14:10:59;10.95;;;2.50;;
77876;SDS011;67251;50.844;7.978;2023-04-24T14:13:24;5.30;;;2.05;;
77876;SDS011;67251;50.844;7.978;2023-04-24T14:15:50;5.95;;;2.20;;
77876;SDS011;67251;50.844;7.978;2023-04-24T14:18:17;7.50;;;2.75;;
77876;SDS011;67251;50.844;7.978;2023-04-24T14:20:46;6.18;;;2.33;;
77876;SDS011;67251;50.844;7.978;2023-04-24T14:23:11;6.82;;;2.50;;
77876;SDS011;67251;50.844;7.978;2023-04-24T14:25:36;5.97;;;2.75;;
77876;SDS011;67251;50.844;7.978;2023-04-24T14:28:02;8.50;;;3.00;;
77876;SDS011;67251;50.844;7.978;2023-04-24T14:30:27;9.15;;;3.08;;
77876;SDS011;67251;50.844;7.978;2023-04-24T14:32:53;8.35;;;3.38;;
77876;SDS011;67251;50.844;7.978;2023-04-24T14:35:18;10.45;;;3.95;;
77876;SDS011;67251;50.844;7.978;2023-04-24T14:37:44;8.10;;;3.67;;
77876;SDS011;67251;50.844;7.978;2023-04-24T14:40:10;7.07;;;3.67;;
77876;SDS011;67251;50.844;7.978;2023-04-24T14:42:35;8.15;;;3.22;;
77876;SDS011;67251;50.844;7.978;2023-04-24T14:45:01;9.65;;;3.47;;
77876;SDS011;67251;50.844;7.978;2023-04-24T14:47:27;8.50;;;3.47;;
77876;SDS011;67251;50.844;7.978;2023-04-24T14:49:52;8.25;;;3.42;;
77876;SDS011;67251;50.844;7.978;2023-04-24T14:52:18;8.85;;;3.58;;
77876;SDS011;67251;50.844;7.978;2023-04-24T14:54:43;7.82;;;3.22;;
77876;SDS011;67251;50.844;7.978;2023-04-24T14:57:09;9.27;;;3.78;;
77876;SDS011;67251;50.844;7.978;2023-04-24T14:59:35;9.85;;;4.07;;
77876;SDS011;67251;50.844;7.978;2023-04-24T15:02:00;9.75;;;4.57;;
77876;SDS011;67251;50.844;7.978;2023-04-24T15:04:26;8.85;;;4.13;;
77876;SDS011;67251;50.844;7.978;2023-04-24T15:06:52;8.68;;;3.92;;
77876;SDS011;67251;50.844;7.978;2023-04-24T15:09:19;8.38;;;4.15;;
77876;SDS011;67251;50.844;7.978;2023-04-24T15:11:45;9.48;;;3.97;;